createdAt,value
2023-02-28T00:01:16.890Z,3.97
2023-02-28T00:02:40.088Z,4.63
2023-02-28T00:03:53.504Z,3.40
2023-02-28T00:05:08.350Z,3.88
2023-02-28T00:06:39.855Z,3.95
2023-02-28T00:08:12.854Z,2.85
2023-02-28T00:09:27.343Z,3.38
2023-02-28T00:10:33.886Z,3.83
2023-02-28T00:11:49.323Z,4.25
2023-02-28T00:13:00.046Z,3.40
2023-02-28T00:14:03.590Z,2.85
2023-02-28T00:15:25.540Z,3.75
2023-02-28T00:16:31.321Z,3.80
2023-02-28T00:17:40.499Z,3.45
2023-02-28T00:18:51.364Z,2.75
2023-02-28T00:20:17.414Z,3.22
2023-02-28T00:21:32.215Z,3.55
2023-02-28T00:23:07.867Z,3.13
2023-02-28T00:24:18.402Z,3.30
2023-02-28T00:25:31.844Z,3.35
2023-02-28T00:26:45.666Z,2.85
2023-02-28T00:27:50.166Z,3.17
2023-02-28T00:28:59.230Z,2.80
2023-02-28T00:30:17.320Z,2.60
2023-02-28T00:31:22.322Z,3.70
2023-02-28T00:32:26.153Z,2.80
2023-02-28T00:33:30.671Z,2.88
2023-02-28T00:34:38.835Z,2.53
2023-02-28T00:35:43.041Z,3.63
2023-02-28T00:36:49.977Z,3.47
2023-02-28T00:37:54.200Z,3.10
2023-02-28T00:38:58.345Z,2.80
2023-02-28T00:40:03.386Z,2.28
2023-02-28T00:41:12.219Z,2.50
2023-02-28T00:42:16.065Z,3.67
2023-02-28T00:43:20.239Z,3.22
2023-02-28T00:44:27.321Z,2.70
2023-02-28T00:45:31.113Z,3.40
2023-02-28T00:46:35.126Z,2.80
2023-02-28T00:47:39.240Z,3.50
2023-02-28T00:48:43.335Z,2.92
2023-02-28T00:49:47.015Z,2.83
2023-02-28T00:50:51.219Z,2.45
2023-02-28T00:51:58.056Z,3.10
2023-02-28T00:53:08.904Z,2.78
2023-02-28T00:54:25.432Z,2.80
2023-02-28T00:55:31.307Z,3.35
2023-02-28T00:56:35.360Z,3.38
2023-02-28T00:57:43.216Z,2.83
2023-02-28T00:58:50.471Z,3.42
2023-02-28T01:00:14.914Z,2.80
2023-02-28T01:01:18.787Z,3.03
2023-02-28T01:02:33.570Z,3.35
2023-02-28T01:03:37.786Z,3.28
2023-02-28T01:04:41.426Z,3.85
2023-02-28T01:05:45.577Z,2.15
2023-02-28T01:06:49.250Z,3.72
2023-02-28T01:07:53.247Z,3.08
2023-02-28T01:08:57.190Z,3.22
2023-02-28T01:10:00.680Z,2.88
2023-02-28T01:11:15.825Z,2.83
2023-02-28T01:12:20.154Z,4.43
2023-02-28T01:13:24.780Z,2.97
2023-02-28T01:14:28.721Z,3.13
2023-02-28T01:15:33.295Z,2.88
2023-02-28T01:16:36.963Z,2.85
2023-02-28T01:17:40.487Z,3.58
2023-02-28T01:18:44.757Z,3.25
2023-02-28T01:19:48.636Z,3.22
2023-02-28T01:20:56.581Z,2.80
2023-02-28T01:22:12.907Z,2.85
2023-02-28T01:23:16.778Z,2.45
2023-02-28T01:24:20.734Z,4.10
2023-02-28T01:25:25.214Z,3.63
2023-02-28T01:26:29.156Z,3.22
2023-02-28T01:27:34.292Z,2.97
2023-02-28T01:28:38.717Z,4.10
2023-02-28T01:29:43.162Z,3.28
2023-02-28T01:30:51.538Z,3.40
2023-02-28T01:31:55.869Z,3.03
2023-02-28T01:33:00.655Z,2.97
2023-02-28T01:34:05.058Z,3.03
2023-02-28T01:35:12.967Z,3.65
2023-02-28T01:36:29.560Z,3.05
2023-02-28T01:37:34.363Z,3.83
2023-02-28T01:38:38.189Z,3.35
2023-02-28T01:39:41.761Z,3.25
2023-02-28T01:40:50.445Z,3.00
2023-02-28T01:41:54.825Z,2.83
2023-02-28T01:42:58.365Z,3.35
2023-02-28T01:44:59.602Z,2.80
2023-02-28T01:46:03.392Z,3.05
2023-02-28T01:47:14.884Z,4.45
2023-02-28T01:48:20.863Z,3.45
2023-02-28T01:49:24.566Z,4.05
2023-02-28T01:50:35.579Z,2.85
2023-02-28T01:51:51.844Z,2.85
2023-02-28T01:53:02.804Z,2.60
2023-02-28T01:54:16.157Z,3.00
2023-02-28T01:55:24.813Z,3.00
2023-02-28T01:56:37.238Z,3.00
2023-02-28T01:57:50.275Z,3.78
2023-02-28T01:58:56.376Z,4.03
2023-02-28T02:00:18.037Z,3.55
2023-02-28T02:01:27.589Z,3.58
2023-02-28T02:02:32.594Z,4.55
2023-02-28T02:03:37.323Z,4.75
2023-02-28T02:04:59.631Z,3.83
2023-02-28T02:06:04.271Z,3.58
2023-02-28T02:07:16.028Z,3.22
2023-02-28T02:08:30.243Z,3.55
2023-02-28T02:09:34.017Z,3.13
2023-02-28T02:10:45.441Z,3.35
2023-02-28T02:11:48.990Z,3.70
2023-02-28T02:13:23.245Z,3.80
2023-02-28T02:14:49.505Z,3.05
2023-02-28T02:16:40.644Z,3.50
2023-02-28T02:17:53.235Z,3.78
2023-02-28T02:19:20.163Z,3.58
2023-02-28T02:21:16.250Z,3.80
2023-02-28T02:22:53.054Z,2.85
2023-02-28T02:24:15.328Z,3.10
2023-02-28T02:25:55.716Z,3.97
2023-02-28T02:27:19.299Z,3.53
2023-02-28T02:28:37.996Z,3.55
2023-02-28T02:30:18.838Z,3.78
2023-02-28T02:31:53.249Z,3.80
2023-02-28T02:33:21.890Z,3.28
2023-02-28T02:34:53.005Z,3.47
2023-02-28T02:36:34.772Z,3.17
2023-02-28T02:37:51.852Z,3.55
2023-02-28T02:39:47.657Z,3.80
2023-02-28T02:41:12.048Z,4.07
2023-02-28T02:42:43.785Z,3.47
2023-02-28T02:43:59.499Z,2.95
2023-02-28T02:45:16.928Z,3.42
2023-02-28T02:46:28.906Z,3.53
2023-02-28T02:47:34.436Z,3.97
2023-02-28T02:48:43.266Z,3.60
2023-02-28T02:49:55.810Z,5.18
2023-02-28T02:51:13.070Z,3.40
2023-02-28T02:52:24.539Z,4.22
2023-02-28T02:53:39.439Z,3.67
2023-02-28T02:54:49.733Z,4.63
2023-02-28T02:55:56.081Z,3.50
2023-02-28T02:57:09.897Z,3.65
2023-02-28T02:58:19.980Z,4.28
2023-02-28T02:59:27.713Z,4.22
2023-02-28T03:00:39.470Z,3.83
2023-02-28T03:01:44.260Z,3.72
2023-02-28T03:02:51.396Z,4.45
2023-02-28T03:04:04.228Z,4.63
2023-02-28T03:05:26.783Z,4.28
2023-02-28T03:06:30.362Z,3.85
2023-02-28T03:07:33.945Z,3.40
2023-02-28T03:08:39.483Z,4.00
2023-02-28T03:09:54.441Z,5.15
2023-02-28T03:11:03.472Z,2.97
2023-02-28T03:12:14.625Z,3.58
2023-02-28T03:13:52.512Z,3.70
2023-02-28T03:14:59.378Z,4.00
2023-02-28T03:16:38.823Z,4.20
2023-02-28T03:18:20.232Z,4.22
2023-02-28T03:20:16.787Z,4.38
2023-02-28T03:21:25.906Z,3.25
2023-02-28T03:22:42.610Z,5.20
2023-02-28T03:24:17.731Z,3.60
2023-02-28T03:25:39.184Z,3.38
2023-02-28T03:26:54.568Z,4.18
2023-02-28T03:28:26.568Z,4.68
2023-02-28T03:29:44.723Z,4.90
2023-02-28T03:31:35.285Z,4.05
2023-02-28T03:32:58.085Z,3.83
2023-02-28T03:34:38.240Z,4.32
2023-02-28T03:35:53.570Z,4.63
2023-02-28T03:37:09.850Z,3.95
2023-02-28T03:38:40.403Z,4.60
2023-02-28T03:40:13.966Z,4.90
2023-02-28T03:41:25.002Z,3.80
2023-02-28T03:42:35.429Z,4.57
2023-02-28T03:43:46.395Z,4.47
2023-02-28T03:45:10.552Z,4.95
2023-02-28T03:46:23.494Z,3.55
2023-02-28T03:47:46.850Z,4.75
2023-02-28T03:49:24.379Z,4.20
2023-02-28T03:50:45.801Z,3.72
2023-02-28T03:51:52.239Z,4.00
2023-02-28T03:53:28.396Z,3.47
2023-02-28T03:54:43.104Z,5.97
2023-02-28T03:56:04.415Z,5.18
2023-02-28T03:57:34.324Z,3.88
2023-02-28T03:59:15.928Z,3.55
2023-02-28T04:00:29.601Z,3.97
2023-02-28T04:01:54.650Z,4.53
2023-02-28T04:02:59.100Z,5.93
2023-02-28T04:04:04.623Z,4.57
2023-02-28T04:05:12.262Z,4.63
2023-02-28T04:06:23.195Z,3.75
2023-02-28T04:07:30.556Z,3.70
2023-02-28T04:08:35.388Z,4.65
2023-02-28T04:09:39.460Z,3.85
2023-02-28T04:10:48.723Z,4.15
2023-02-28T04:11:54.432Z,4.43
2023-02-28T04:12:58.073Z,4.68
2023-02-28T04:14:03.659Z,4.80
2023-02-28T04:15:12.454Z,3.83
2023-02-28T04:16:33.497Z,4.07
2023-02-28T04:17:38.589Z,4.85
2023-02-28T04:18:46.309Z,4.20
2023-02-28T04:19:50.943Z,4.18
2023-02-28T04:20:54.620Z,2.78
2023-02-28T04:21:58.404Z,3.90
2023-02-28T04:23:02.252Z,4.72
2023-02-28T04:24:16.362Z,5.60
2023-02-28T04:25:20.771Z,4.53
2023-02-28T04:26:24.734Z,3.90
2023-02-28T04:27:28.661Z,4.47
2023-02-28T04:28:32.853Z,4.97
2023-02-28T04:29:37.419Z,4.78
2023-02-28T04:30:41.077Z,4.13
2023-02-28T04:31:44.770Z,4.90
2023-02-28T04:32:48.488Z,4.45
2023-02-28T04:33:52.356Z,4.40
2023-02-28T04:34:56.802Z,3.45
2023-02-28T04:36:03.745Z,5.35
2023-02-28T04:37:13.746Z,4.47
2023-02-28T04:38:17.962Z,4.63
2023-02-28T04:39:26.055Z,3.80
2023-02-28T04:40:29.772Z,4.43
2023-02-28T04:41:34.543Z,4.15
2023-02-28T04:42:39.637Z,3.60
2023-02-28T04:43:44.258Z,4.70
2023-02-28T04:44:48.653Z,5.10
2023-02-28T04:45:52.235Z,5.07
2023-02-28T04:46:56.429Z,4.75
2023-02-28T04:48:00.606Z,3.90
2023-02-28T04:49:04.836Z,4.18
2023-02-28T04:50:14.023Z,4.40
2023-02-28T04:51:20.519Z,5.25
2023-02-28T04:52:24.334Z,3.88
2023-02-28T04:53:30.698Z,3.92
2023-02-28T04:54:34.902Z,5.80
2023-02-28T04:55:41.292Z,5.15
2023-02-28T04:56:45.026Z,3.80
2023-02-28T04:57:49.378Z,4.03
2023-02-28T04:58:54.530Z,5.43
2023-02-28T04:59:58.403Z,3.55
2023-02-28T05:01:22.568Z,3.60
2023-02-28T05:02:26.225Z,5.03
2023-02-28T05:03:29.838Z,4.32
2023-02-28T05:04:37.086Z,3.97
2023-02-28T05:05:41.042Z,4.10
2023-02-28T05:06:44.980Z,5.30
2023-02-28T05:07:48.724Z,6.70
2023-02-28T05:08:53.455Z,4.30
2023-02-28T05:09:57.546Z,4.45
2023-02-28T05:11:02.836Z,3.50
2023-02-28T05:12:10.809Z,4.90
2023-02-28T05:13:14.511Z,4.43
2023-02-28T05:14:23.881Z,4.60
2023-02-28T05:15:27.450Z,4.38
2023-02-28T05:16:31.516Z,4.05
2023-02-28T05:17:35.194Z,5.05
2023-02-28T05:18:40.047Z,4.85
2023-02-28T05:19:43.974Z,5.05
2023-02-28T05:20:47.600Z,4.57
2023-02-28T05:21:56.544Z,3.53
2023-02-28T05:23:04.669Z,4.22
2023-02-28T05:24:13.787Z,4.00
2023-02-28T05:25:22.804Z,4.50
2023-02-28T05:26:27.713Z,4.25
2023-02-28T05:27:31.726Z,4.43
2023-02-28T05:28:35.674Z,5.40
2023-02-28T05:29:43.026Z,4.83
2023-02-28T05:30:47.667Z,4.38
2023-02-28T05:31:51.466Z,4.28
2023-02-28T05:32:56.256Z,3.30
2023-02-28T05:34:00.783Z,5.30
2023-02-28T05:35:11.318Z,5.75
2023-02-28T05:36:15.855Z,4.32
2023-02-28T05:37:19.619Z,4.30
2023-02-28T05:38:23.650Z,4.57
2023-02-28T05:39:27.663Z,5.82
2023-02-28T05:40:31.558Z,4.90
2023-02-28T05:41:35.295Z,4.55
2023-02-28T05:42:39.631Z,4.63
2023-02-28T05:43:43.997Z,5.28
2023-02-28T05:44:48.325Z,4.95
2023-02-28T05:45:53.566Z,5.50
2023-02-28T05:46:57.390Z,5.50
2023-02-28T05:48:00.991Z,4.72
2023-02-28T05:49:09.237Z,5.32
2023-02-28T05:50:13.631Z,4.40
2023-02-28T05:51:18.217Z,4.50
2023-02-28T05:52:22.050Z,4.78
2023-02-28T05:53:25.776Z,4.93
2023-02-28T05:54:29.724Z,5.73
2023-02-28T05:55:33.643Z,5.07
2023-02-28T05:56:40.221Z,4.05
2023-02-28T05:57:45.861Z,4.75
2023-02-28T05:58:49.618Z,5.93
2023-02-28T05:59:54.815Z,4.53
2023-02-28T06:01:00.137Z,4.30
2023-02-28T06:02:08.922Z,4.95
2023-02-28T06:03:12.966Z,4.43
2023-02-28T06:04:31.005Z,5.25
2023-02-28T06:05:36.122Z,3.80
2023-02-28T06:06:40.466Z,3.77
2023-02-28T06:07:45.106Z,5.22
2023-02-28T06:08:48.968Z,5.45
2023-02-28T06:09:52.794Z,4.90
2023-02-28T06:10:56.987Z,4.75
2023-02-28T06:12:05.731Z,5.05
2023-02-28T06:13:14.143Z,4.70
2023-02-28T06:14:20.515Z,4.93
2023-02-28T06:15:24.546Z,3.80
2023-02-28T06:16:30.925Z,6.35
2023-02-28T06:17:35.324Z,4.78
2023-02-28T06:18:40.772Z,4.75
2023-02-28T06:19:45.338Z,4.03
2023-02-28T06:20:56.780Z,6.15
2023-02-28T06:22:02.194Z,5.43
2023-02-28T06:23:12.497Z,4.38
2023-02-28T06:24:16.393Z,4.63
2023-02-28T06:25:20.357Z,5.78
2023-02-28T06:26:24.473Z,4.97
2023-02-28T06:27:28.476Z,5.82
2023-02-28T06:28:32.183Z,5.07
2023-02-28T06:29:37.102Z,6.70
2023-02-28T06:30:41.158Z,5.60
2023-02-28T06:31:46.170Z,5.55
2023-02-28T06:32:50.645Z,6.30
2023-02-28T06:33:54.598Z,4.13
2023-02-28T06:35:01.619Z,5.53
2023-02-28T06:36:11.420Z,4.97
2023-02-28T06:37:24.411Z,4.30
2023-02-28T06:38:29.462Z,6.97
2023-02-28T06:39:43.777Z,4.97
2023-02-28T06:41:01.026Z,5.95
2023-02-28T06:42:14.198Z,4.72
2023-02-28T06:43:18.367Z,5.00
2023-02-28T06:44:23.502Z,4.68
2023-02-28T06:45:34.806Z,5.93
2023-02-28T06:46:44.163Z,6.43
2023-02-28T06:47:53.308Z,4.85
2023-02-28T06:48:57.482Z,6.10
2023-02-28T06:50:02.659Z,5.78
2023-02-28T06:51:15.157Z,4.45
2023-02-28T06:52:18.740Z,5.43
2023-02-28T06:53:22.303Z,4.72
2023-02-28T06:54:26.138Z,4.93
2023-02-28T06:55:30.818Z,4.70
2023-02-28T06:56:38.159Z,5.72
2023-02-28T06:57:41.652Z,5.82
2023-02-28T06:58:50.605Z,4.75
2023-02-28T06:59:54.422Z,5.55
2023-02-28T07:00:58.341Z,6.32
2023-02-28T07:02:12.489Z,5.03
2023-02-28T07:03:20.681Z,5.28
2023-02-28T07:04:25.136Z,5.53
2023-02-28T07:05:28.966Z,5.85
2023-02-28T07:06:33.291Z,6.00
2023-02-28T07:07:50.593Z,6.32
2023-02-28T07:08:58.376Z,5.45
2023-02-28T07:10:02.200Z,6.63
2023-02-28T07:11:06.214Z,6.25
2023-02-28T07:12:13.760Z,4.70
2023-02-28T07:13:20.854Z,5.50
2023-02-28T07:14:24.529Z,5.95
2023-02-28T07:15:28.904Z,7.45
2023-02-28T07:16:33.037Z,6.93
2023-02-28T07:17:36.802Z,5.32
2023-02-28T07:18:41.104Z,5.80
2023-02-28T07:19:44.649Z,5.25
2023-02-28T07:20:48.198Z,5.82
2023-02-28T07:21:51.890Z,6.13
2023-02-28T07:22:59.289Z,4.60
2023-02-28T07:24:03.364Z,5.45
2023-02-28T07:25:11.953Z,6.20
2023-02-28T07:26:21.525Z,5.47
2023-02-28T07:27:26.667Z,4.88
2023-02-28T07:28:32.307Z,6.07
2023-02-28T07:29:36.003Z,5.47
2023-02-28T07:30:40.142Z,6.03
2023-02-28T07:31:43.893Z,5.22
2023-02-28T07:32:49.208Z,5.93
2023-02-28T07:33:52.798Z,5.97
2023-02-28T07:34:57.157Z,6.40
2023-02-28T07:36:16.456Z,6.95
2023-02-28T07:37:21.714Z,5.32
2023-02-28T07:38:25.799Z,4.85
2023-02-28T07:39:30.064Z,5.78
2023-02-28T07:40:37.558Z,5.15
2023-02-28T07:41:44.616Z,5.22
2023-02-28T07:42:48.465Z,4.30
2023-02-28T07:43:58.486Z,4.85
2023-02-28T07:45:02.774Z,5.13
2023-02-28T07:46:12.725Z,4.00
2023-02-28T07:47:16.632Z,3.70
2023-02-28T07:48:20.255Z,5.30
2023-02-28T07:49:24.011Z,5.13
2023-02-28T07:50:31.986Z,6.57
2023-02-28T07:51:35.749Z,6.05
2023-02-28T07:52:40.859Z,4.32
2023-02-28T07:53:44.444Z,4.43
2023-02-28T07:54:48.248Z,4.35
2023-02-28T07:55:51.987Z,4.60
2023-02-28T07:56:55.985Z,4.43
2023-02-28T07:58:00.134Z,4.18
2023-02-28T07:59:04.480Z,4.40
2023-02-28T08:00:16.519Z,4.60
2023-02-28T08:01:20.967Z,4.35
2023-02-28T08:02:25.705Z,3.83
2023-02-28T08:03:29.387Z,5.45
2023-02-28T08:04:34.432Z,5.75
2023-02-28T08:05:41.310Z,4.68
2023-02-28T08:06:45.589Z,4.38
2023-02-28T08:07:51.132Z,4.20
2023-02-28T08:08:57.749Z,4.60
2023-02-28T08:10:02.031Z,4.00
2023-02-28T08:11:09.322Z,3.88
2023-02-28T08:12:13.764Z,3.38
2023-02-28T08:13:18.092Z,5.00
2023-02-28T08:14:21.955Z,3.35
2023-02-28T08:15:25.755Z,3.92
2023-02-28T08:16:29.781Z,4.75
2023-02-28T08:17:35.388Z,3.53
2023-02-28T08:18:39.779Z,4.82
2023-02-28T08:19:46.123Z,3.95
2023-02-28T08:20:50.275Z,3.15
2023-02-28T08:21:54.562Z,3.88
2023-02-28T08:22:58.246Z,3.45
2023-02-28T08:24:02.011Z,4.90
2023-02-28T08:25:10.301Z,4.13
2023-02-28T08:26:14.611Z,3.90
2023-02-28T08:27:18.484Z,4.22
2023-02-28T08:28:25.500Z,3.35
2023-02-28T08:29:31.373Z,2.80
2023-02-28T08:30:35.244Z,3.72
2023-02-28T08:31:39.376Z,3.85
2023-02-28T08:32:46.443Z,2.80
2023-02-28T08:33:53.169Z,3.70
2023-02-28T08:35:04.509Z,2.63
2023-02-28T08:36:12.737Z,3.50
2023-02-28T08:37:16.560Z,3.20
2023-02-28T08:38:20.404Z,4.10
2023-02-28T08:39:24.292Z,2.88
2023-02-28T08:40:28.070Z,4.38
2023-02-28T08:41:32.620Z,4.35
2023-02-28T08:42:41.785Z,3.10
2023-02-28T08:43:45.677Z,4.32
2023-02-28T08:44:49.453Z,3.85
2023-02-28T08:45:55.583Z,3.28
2023-02-28T08:46:59.443Z,2.53
2023-02-28T08:48:03.632Z,2.95
2023-02-28T08:49:12.748Z,4.07
2023-02-28T08:50:18.660Z,3.92
2023-02-28T08:51:28.271Z,3.58
2023-02-28T08:52:33.882Z,2.45
2023-02-28T08:53:40.677Z,2.70
2023-02-28T08:54:44.404Z,2.92
2023-02-28T08:55:48.503Z,3.35
2023-02-28T08:56:52.927Z,2.35
2023-02-28T08:57:57.208Z,2.42
2023-02-28T08:59:02.972Z,2.22
2023-02-28T09:00:14.738Z,2.33
2023-02-28T09:01:23.027Z,2.67
2023-02-28T09:02:27.394Z,2.47
2023-02-28T09:03:31.317Z,1.95
2023-02-28T09:04:35.677Z,1.77
2023-02-28T09:05:39.415Z,2.03
2023-02-28T09:06:52.332Z,2.95
2023-02-28T09:08:09.441Z,1.90
2023-02-28T09:09:13.480Z,2.17
2023-02-28T09:10:17.528Z,2.25
2023-02-28T09:11:21.356Z,2.22
2023-02-28T09:12:39.118Z,1.60
2023-02-28T09:13:43.521Z,2.65
2023-02-28T09:14:47.155Z,2.90
2023-02-28T09:15:51.093Z,1.83
2023-02-28T09:16:54.694Z,2.13
2023-02-28T09:17:58.255Z,1.45
2023-02-28T09:19:02.857Z,2.03
2023-02-28T09:20:11.126Z,1.45
2023-02-28T09:21:19.370Z,1.80
2023-02-28T09:22:22.967Z,1.98
2023-02-28T09:23:32.525Z,2.30
2023-02-28T09:24:38.629Z,2.15
2023-02-28T09:25:52.164Z,2.05
2023-02-28T09:27:04.939Z,2.17
2023-02-28T09:28:13.167Z,2.08
2023-02-28T09:29:18.608Z,2.25
2023-02-28T09:30:22.495Z,1.85
2023-02-28T09:31:29.581Z,2.00
2023-02-28T09:32:33.397Z,2.08
2023-02-28T09:33:37.463Z,1.63
2023-02-28T09:34:41.838Z,2.53
2023-02-28T09:35:45.744Z,2.65
2023-02-28T09:36:50.093Z,1.98
2023-02-28T09:37:54.731Z,2.20
2023-02-28T09:38:58.580Z,2.53
2023-02-28T09:40:02.631Z,2.47
2023-02-28T09:41:23.746Z,2.30
2023-02-28T09:42:35.620Z,2.10
2023-02-28T09:43:46.176Z,2.22
2023-02-28T09:44:51.577Z,2.63
2023-02-28T09:46:22.316Z,2.50
2023-02-28T09:47:35.247Z,2.90
2023-02-28T09:48:46.654Z,1.83
2023-02-28T09:49:51.087Z,2.58
2023-02-28T09:51:08.013Z,2.72
2023-02-28T09:52:34.234Z,2.97
2023-02-28T09:53:40.941Z,2.53
2023-02-28T09:54:44.656Z,2.88
2023-02-28T09:56:04.242Z,2.13
2023-02-28T09:57:41.394Z,2.25
2023-02-28T09:59:00.998Z,2.50
2023-02-28T10:00:13.928Z,2.42
2023-02-28T10:01:55.040Z,3.55
2023-02-28T10:03:29.768Z,3.97
2023-02-28T10:05:01.452Z,2.30
2023-02-28T10:06:09.556Z,2.70
2023-02-28T10:07:44.782Z,3.50
2023-02-28T10:09:05.540Z,3.33
2023-02-28T10:10:25.719Z,2.25
2023-02-28T10:11:32.794Z,2.28
2023-02-28T10:12:44.467Z,2.85
2023-02-28T10:13:53.929Z,2.95
2023-02-28T10:15:01.080Z,3.45
2023-02-28T10:16:27.840Z,3.88
2023-02-28T10:17:55.059Z,2.60
2023-02-28T10:19:21.413Z,3.10
2023-02-28T10:20:32.312Z,2.25
2023-02-28T10:21:48.885Z,3.00
2023-02-28T10:23:20.965Z,1.92
2023-02-28T10:24:47.081Z,2.95
2023-02-28T10:26:14.772Z,3.20
2023-02-28T10:27:26.247Z,3.33
2023-02-28T10:28:32.043Z,2.60
2023-02-28T10:29:35.962Z,2.85
2023-02-28T10:30:48.638Z,2.72
2023-02-28T10:31:52.792Z,2.45
2023-02-28T10:32:57.703Z,2.30
2023-02-28T10:34:01.640Z,2.67
2023-02-28T10:35:22.121Z,2.78
2023-02-28T10:36:25.727Z,3.95
2023-02-28T10:37:30.237Z,2.53
2023-02-28T10:38:40.875Z,2.65
2023-02-28T10:39:48.148Z,2.92
2023-02-28T10:41:04.039Z,3.90
2023-02-28T10:42:27.720Z,2.30
2023-02-28T10:43:34.147Z,3.15
2023-02-28T10:44:38.096Z,2.90
2023-02-28T10:46:01.879Z,2.65
2023-02-28T10:47:05.541Z,2.13
2023-02-28T10:48:14.639Z,2.65
2023-02-28T10:49:25.845Z,2.60
2023-02-28T10:50:36.960Z,2.45
2023-02-28T10:51:42.599Z,3.22
2023-02-28T10:52:46.416Z,2.63
2023-02-28T10:54:03.373Z,2.88
2023-02-28T10:55:24.808Z,3.05
2023-02-28T10:56:29.989Z,2.28
2023-02-28T10:57:39.165Z,3.35
2023-02-28T10:59:23.350Z,3.28
2023-02-28T11:00:35.841Z,2.78
2023-02-28T11:01:42.344Z,3.42
2023-02-28T11:02:47.633Z,3.53
2023-02-28T11:03:52.685Z,3.00
2023-02-28T11:04:57.202Z,3.45
2023-02-28T11:06:14.312Z,3.15
2023-02-28T11:07:27.873Z,3.20
2023-02-28T11:08:54.882Z,3.50
2023-02-28T11:10:00.462Z,3.35
2023-02-28T11:11:07.482Z,3.50
2023-02-28T11:12:34.114Z,3.38
2023-02-28T11:13:39.384Z,3.60
2023-02-28T11:14:53.338Z,3.42
2023-02-28T11:16:01.738Z,3.85
2023-02-28T11:17:25.816Z,3.60
2023-02-28T11:18:40.225Z,3.03
2023-02-28T11:19:50.941Z,3.42
2023-02-28T11:20:58.847Z,4.15
2023-02-28T11:22:07.833Z,3.42
2023-02-28T11:23:16.446Z,3.00
2023-02-28T11:24:31.032Z,2.92
2023-02-28T11:25:39.312Z,3.95
2023-02-28T11:26:47.614Z,3.03
2023-02-28T11:28:06.176Z,3.13
2023-02-28T11:29:28.288Z,2.88
2023-02-28T11:30:38.119Z,3.28
2023-02-28T11:31:41.693Z,3.28
2023-02-28T11:32:51.191Z,3.50
2023-02-28T11:33:57.680Z,2.65
2023-02-28T11:35:23.447Z,3.47
2023-02-28T11:36:31.755Z,3.10
2023-02-28T11:37:35.989Z,3.90
2023-02-28T11:38:40.406Z,3.78
2023-02-28T11:39:46.613Z,2.47
2023-02-28T11:40:56.576Z,3.85
2023-02-28T11:42:36.290Z,2.95
2023-02-28T11:44:04.923Z,3.25
2023-02-28T11:45:35.916Z,3.63
2023-02-28T11:46:51.536Z,3.03
2023-02-28T11:48:21.339Z,3.55
2023-02-28T11:50:04.677Z,2.80
2023-02-28T11:51:29.934Z,3.20
2023-02-28T11:52:57.702Z,2.78
2023-02-28T11:54:52.936Z,3.28
2023-02-28T11:56:10.430Z,3.88
2023-02-28T11:57:22.763Z,2.20
2023-02-28T11:58:41.644Z,2.75
2023-02-28T11:59:57.582Z,3.00
2023-02-28T12:01:47.332Z,3.28
2023-02-28T12:03:04.104Z,2.97
2023-02-28T12:04:49.981Z,2.50
2023-02-28T12:06:35.420Z,3.35
2023-02-28T12:08:17.093Z,2.60
2023-02-28T12:09:35.676Z,2.67
2023-02-28T12:11:13.026Z,3.08
2023-02-28T12:12:43.944Z,3.03
2023-02-28T12:14:15.676Z,3.33
2023-02-28T12:15:36.853Z,3.38
2023-02-28T12:17:20.989Z,2.55
2023-02-28T12:19:18.861Z,3.30
2023-02-28T12:20:51.679Z,3.58
2023-02-28T12:22:22.766Z,3.20
2023-02-28T12:23:50.413Z,4.18
2023-02-28T12:25:08.628Z,3.13
2023-02-28T12:26:41.032Z,2.92
2023-02-28T12:27:51.417Z,2.75
2023-02-28T12:29:30.531Z,3.28
2023-02-28T12:30:42.246Z,2.70
2023-02-28T12:32:25.108Z,2.80
2023-02-28T12:33:39.650Z,2.88
2023-02-28T12:34:54.279Z,2.90
2023-02-28T12:36:04.558Z,3.25
2023-02-28T12:37:24.189Z,2.92
2023-02-28T12:38:43.823Z,2.83
2023-02-28T12:39:56.268Z,2.30
2023-02-28T12:41:15.285Z,2.75
2023-02-28T12:42:32.342Z,2.58
2023-02-28T12:43:47.191Z,3.90
2023-02-28T12:45:00.134Z,2.83
2023-02-28T12:46:26.743Z,3.45
2023-02-28T12:47:30.817Z,4.15
2023-02-28T12:48:54.606Z,3.00
2023-02-28T12:50:07.277Z,3.38
2023-02-28T12:51:13.534Z,2.88
2023-02-28T12:52:35.328Z,2.55
2023-02-28T12:54:16.632Z,2.75
2023-02-28T12:55:44.926Z,2.95
2023-02-28T12:57:19.208Z,3.00
2023-02-28T12:58:50.581Z,2.97
2023-02-28T13:00:14.489Z,2.75
2023-02-28T13:02:02.304Z,2.80
2023-02-28T13:04:08.157Z,2.97
2023-02-28T13:05:29.543Z,3.33
2023-02-28T13:07:16.486Z,3.10
2023-02-28T13:08:42.834Z,2.63
2023-02-28T13:10:03.455Z,2.78
2023-02-28T13:11:16.438Z,3.35
2023-02-28T13:12:26.153Z,2.92
2023-02-28T13:13:32.431Z,3.13
2023-02-28T13:14:36.737Z,2.70
2023-02-28T13:15:42.301Z,2.92
2023-02-28T13:17:15.112Z,3.10
2023-02-28T13:18:42.979Z,3.13
2023-02-28T13:19:55.914Z,3.08
2023-02-28T13:21:02.712Z,3.13
2023-02-28T13:22:21.556Z,2.22
2023-02-28T13:24:00.857Z,3.20
2023-02-28T13:25:34.441Z,2.78
2023-02-28T13:26:37.962Z,3.65
2023-02-28T13:27:43.147Z,3.55
2023-02-28T13:28:54.328Z,2.83
2023-02-28T13:29:58.112Z,3.03
2023-02-28T13:31:06.299Z,2.92
2023-02-28T13:32:10.108Z,2.53
2023-02-28T13:34:07.465Z,2.60
2023-02-28T13:35:11.341Z,2.65
2023-02-28T13:36:15.570Z,3.05
2023-02-28T13:37:30.715Z,3.58
2023-02-28T13:38:43.176Z,3.55
2023-02-28T13:39:58.265Z,3.00
2023-02-28T13:41:33.214Z,3.22
2023-02-28T13:42:50.936Z,2.92
2023-02-28T13:44:02.171Z,3.72
2023-02-28T13:45:06.121Z,2.60
2023-02-28T13:46:14.291Z,2.80
2023-02-28T13:47:25.959Z,2.75
2023-02-28T13:48:31.602Z,2.85
2023-02-28T13:49:37.032Z,2.42
2023-02-28T13:50:43.037Z,2.83
2023-02-28T13:52:03.787Z,3.13
2023-02-28T13:53:16.298Z,2.47
2023-02-28T13:55:17.525Z,2.45
2023-02-28T13:56:41.858Z,2.65
2023-02-28T13:58:19.760Z,2.83
2023-02-28T14:00:11.035Z,2.72
2023-02-28T14:01:38.861Z,3.00
2023-02-28T14:03:05.270Z,2.50
2023-02-28T14:04:36.012Z,3.30
2023-02-28T14:05:40.700Z,3.42
2023-02-28T14:06:57.037Z,3.78
2023-02-28T14:08:24.225Z,2.83
2023-02-28T14:09:30.709Z,3.10
2023-02-28T14:10:46.891Z,3.17
2023-02-28T14:11:51.724Z,3.00
2023-02-28T14:13:33.075Z,3.35
2023-02-28T14:14:37.194Z,3.40
2023-02-28T14:15:51.266Z,2.92
2023-02-28T14:16:56.165Z,3.17
2023-02-28T14:18:03.714Z,3.35
2023-02-28T14:19:26.438Z,3.15
2023-02-28T14:20:34.705Z,3.65
2023-02-28T14:21:52.444Z,2.88
2023-02-28T14:23:13.234Z,2.95
2023-02-28T14:24:54.597Z,3.30
2023-02-28T14:26:31.081Z,2.95
2023-02-28T14:28:18.942Z,2.88
2023-02-28T14:29:52.083Z,2.65
2023-02-28T14:31:09.052Z,2.80
2023-02-28T14:32:29.181Z,2.88
2023-02-28T14:34:04.749Z,2.92
2023-02-28T14:35:44.375Z,3.00
2023-02-28T14:36:50.546Z,3.30
2023-02-28T14:37:56.190Z,3.17
2023-02-28T14:39:12.425Z,2.97
2023-02-28T14:40:34.170Z,3.30
2023-02-28T14:41:43.498Z,3.65
2023-02-28T14:42:59.647Z,3.40
2023-02-28T14:44:17.050Z,2.85
2023-02-28T14:45:22.372Z,2.67
2023-02-28T14:46:39.491Z,3.03
2023-02-28T14:47:44.411Z,3.13
2023-02-28T14:48:51.788Z,3.25
2023-02-28T14:49:56.661Z,3.03
2023-02-28T14:51:02.224Z,3.25
2023-02-28T14:52:24.826Z,2.88
2023-02-28T14:53:38.410Z,4.13
2023-02-28T14:54:44.819Z,3.70
2023-02-28T14:55:50.682Z,3.15
2023-02-28T14:56:54.676Z,2.83
2023-02-28T14:58:07.845Z,3.70
2023-02-28T14:59:31.858Z,2.90
2023-02-28T15:00:47.821Z,2.53
2023-02-28T15:01:51.829Z,3.75
2023-02-28T15:02:58.210Z,2.65
2023-02-28T15:04:07.635Z,2.90
2023-02-28T15:05:11.197Z,3.17
2023-02-28T15:06:19.144Z,3.13
2023-02-28T15:07:29.703Z,3.38
2023-02-28T15:08:37.315Z,3.38
2023-02-28T15:09:41.914Z,3.40
2023-02-28T15:11:03.064Z,3.15
2023-02-28T15:12:08.802Z,3.42
2023-02-28T15:13:16.442Z,2.75
2023-02-28T15:14:22.965Z,3.20
2023-02-28T15:15:51.730Z,2.67
2023-02-28T15:17:12.893Z,2.70
2023-02-28T15:18:27.076Z,3.70
2023-02-28T15:19:41.766Z,2.78
2023-02-28T15:20:46.602Z,2.88
2023-02-28T15:22:01.133Z,3.50
2023-02-28T15:23:05.204Z,3.55
2023-02-28T15:24:40.728Z,4.25
2023-02-28T15:25:45.054Z,3.42
2023-02-28T15:26:58.457Z,3.50
2023-02-28T15:28:02.211Z,3.55
2023-02-28T15:29:21.607Z,3.17
2023-02-28T15:30:27.131Z,3.20
2023-02-28T15:31:55.917Z,2.75
2023-02-28T15:33:14.145Z,2.95
2023-02-28T15:34:44.772Z,2.50
2023-02-28T15:35:49.840Z,3.42
2023-02-28T15:36:53.679Z,3.40
2023-02-28T15:38:26.386Z,4.03
2023-02-28T15:39:30.790Z,3.40
2023-02-28T15:40:44.136Z,3.00
2023-02-28T15:41:47.781Z,3.40
2023-02-28T15:43:15.243Z,2.70
2023-02-28T15:44:31.781Z,3.03
2023-02-28T15:45:42.115Z,3.13
2023-02-28T15:47:06.011Z,3.25
2023-02-28T15:48:32.327Z,3.97
2023-02-28T15:49:51.653Z,2.80
2023-02-28T15:51:08.777Z,3.58
2023-02-28T15:52:29.469Z,3.88
2023-02-28T15:54:01.437Z,3.28
2023-02-28T15:55:25.170Z,3.72
2023-02-28T15:56:33.687Z,3.42
2023-02-28T15:57:37.556Z,3.35
2023-02-28T15:58:44.371Z,3.42
2023-02-28T16:00:07.387Z,3.15
2023-02-28T16:01:34.471Z,3.53
2023-02-28T16:02:40.601Z,2.67
2023-02-28T16:03:54.856Z,3.38
2023-02-28T16:05:10.506Z,3.47